createdAt,value
2022-11-15T00:01:30.540Z,2.88
2022-11-15T00:04:15.769Z,2.50
2022-11-15T00:07:01.051Z,2.63
2022-11-15T00:09:46.366Z,2.85
2022-11-15T00:12:31.776Z,2.38
2022-11-15T00:15:17.222Z,2.20
2022-11-15T00:18:03.556Z,2.50
2022-11-15T00:20:48.592Z,2.70
2022-11-15T00:23:34.549Z,2.88
2022-11-15T00:26:20.052Z,2.33
2022-11-15T00:29:05.373Z,2.67
2022-11-15T00:31:50.606Z,3.25
2022-11-15T00:34:36.031Z,2.63
2022-11-15T00:37:21.172Z,2.40
2022-11-15T00:40:07.119Z,2.70
2022-11-15T00:42:52.448Z,2.60
2022-11-15T00:45:37.526Z,2.83
2022-11-15T00:48:22.758Z,2.70
2022-11-15T00:51:07.846Z,2.63
2022-11-15T00:53:53.241Z,3.08
2022-11-15T00:56:38.330Z,2.67
2022-11-15T00:59:23.534Z,2.92
2022-11-15T01:02:08.694Z,3.13
2022-11-15T01:04:53.926Z,3.40
2022-11-15T01:07:39.243Z,3.28
2022-11-15T01:10:24.874Z,2.60
2022-11-15T01:13:10.048Z,2.83
2022-11-15T01:15:55.836Z,3.03
2022-11-15T01:18:41.697Z,2.95
2022-11-15T01:21:27.021Z,2.85
2022-11-15T01:24:14.005Z,3.03
2022-11-15T01:26:58.828Z,2.88
2022-11-15T01:29:43.901Z,2.60
2022-11-15T01:32:29.185Z,2.33
2022-11-15T01:35:14.316Z,2.67
2022-11-15T01:37:59.545Z,2.97
2022-11-15T01:40:44.533Z,3.25
2022-11-15T01:43:35.188Z,2.85
2022-11-15T01:46:32.644Z,3.15
2022-11-15T01:49:20.931Z,3.47
2022-11-15T01:52:10.181Z,2.88
2022-11-15T01:55:06.895Z,3.17
2022-11-15T01:57:54.879Z,2.90
2022-11-15T02:00:40.111Z,2.60
2022-11-15T02:03:35.127Z,3.25
2022-11-15T02:06:21.260Z,2.75
2022-11-15T02:09:06.968Z,2.90
2022-11-15T02:11:52.980Z,2.63
2022-11-15T02:14:39.613Z,2.50
2022-11-15T02:17:52.173Z,2.20
2022-11-15T02:20:44.577Z,2.60
2022-11-15T02:23:44.139Z,2.47
2022-11-15T02:27:00.413Z,2.33
2022-11-15T02:30:19.440Z,2.88
2022-11-15T02:33:12.570Z,2.50
2022-11-15T02:36:19.327Z,2.22
2022-11-15T02:39:14.610Z,2.53
2022-11-15T02:42:45.274Z,2.75
2022-11-15T02:45:34.367Z,2.20
2022-11-15T02:48:21.060Z,2.92
2022-11-15T02:51:06.841Z,2.47
2022-11-15T02:53:51.879Z,2.83
2022-11-15T02:56:36.981Z,3.00
2022-11-15T02:59:57.916Z,3.00
2022-11-15T03:02:43.389Z,3.13
2022-11-15T03:05:38.508Z,2.85
2022-11-15T03:08:29.912Z,2.75
2022-11-15T03:11:17.397Z,3.17
2022-11-15T03:14:29.868Z,2.55
2022-11-15T03:17:31.746Z,3.38
2022-11-15T03:20:18.834Z,2.90
2022-11-15T03:23:09.755Z,2.47
2022-11-15T03:25:56.298Z,3.17
2022-11-15T03:29:10.084Z,3.00
2022-11-15T03:32:01.664Z,2.90
2022-11-15T03:35:01.980Z,2.50
2022-11-15T03:37:54.335Z,2.92
2022-11-15T03:40:41.945Z,2.53
2022-11-15T03:43:47.566Z,2.47
2022-11-15T03:46:35.308Z,3.05
2022-11-15T03:49:28.656Z,2.63
2022-11-15T03:52:13.976Z,2.65
2022-11-15T03:55:01.060Z,2.10
2022-11-15T03:57:47.144Z,3.10
2022-11-15T04:00:32.439Z,2.75
2022-11-15T04:03:18.075Z,2.70
2022-11-15T04:06:03.338Z,2.70
2022-11-15T04:08:48.877Z,3.00
2022-11-15T04:11:34.016Z,2.72
2022-11-15T04:14:19.413Z,2.97
2022-11-15T04:17:04.464Z,2.85
2022-11-15T04:20:08.719Z,2.78
2022-11-15T04:23:16.745Z,2.85
2022-11-15T04:26:05.439Z,3.00
2022-11-15T04:29:09.259Z,2.85
2022-11-15T04:31:54.578Z,2.65
2022-11-15T04:34:39.578Z,2.67
2022-11-15T04:37:24.848Z,2.95
2022-11-15T04:40:11.413Z,3.00
2022-11-15T04:43:03.250Z,3.45
2022-11-15T04:45:48.908Z,2.72
2022-11-15T04:48:33.881Z,2.97
2022-11-15T04:51:19.409Z,2.83
2022-11-15T04:54:04.698Z,2.72
2022-11-15T04:56:51.304Z,3.28
2022-11-15T04:59:36.471Z,2.58
2022-11-15T05:02:22.111Z,2.63
2022-11-15T05:05:07.686Z,2.95
2022-11-15T05:07:52.690Z,2.75
2022-11-15T05:10:38.335Z,2.70
2022-11-15T05:13:23.440Z,2.90
2022-11-15T05:16:08.524Z,2.83
2022-11-15T05:18:54.669Z,3.10
2022-11-15T05:21:40.245Z,3.15
2022-11-15T05:24:25.768Z,3.10
2022-11-15T05:27:11.043Z,2.80
2022-11-15T05:29:56.432Z,3.20
2022-11-15T05:32:41.791Z,2.75
2022-11-15T05:35:32.661Z,3.50
2022-11-15T05:38:17.676Z,3.03
2022-11-15T05:41:03.467Z,2.60
2022-11-15T05:43:49.843Z,2.92
2022-11-15T05:46:35.897Z,3.03
2022-11-15T05:49:23.372Z,2.88
2022-11-15T05:52:11.168Z,2.65
2022-11-15T05:54:57.921Z,2.78
2022-11-15T05:57:43.646Z,3.20
2022-11-15T06:00:29.503Z,3.35
2022-11-15T06:03:15.154Z,2.97
2022-11-15T06:06:00.432Z,3.05
2022-11-15T06:08:45.741Z,2.92
2022-11-15T06:11:30.929Z,2.35
2022-11-15T06:14:16.565Z,2.70
2022-11-15T06:17:08.576Z,2.83
2022-11-15T06:19:56.091Z,2.42
2022-11-15T06:22:41.320Z,2.60
2022-11-15T06:25:27.813Z,3.17
2022-11-15T06:28:13.231Z,2.95
2022-11-15T06:31:10.182Z,2.95
2022-11-15T06:33:55.439Z,2.45
2022-11-15T06:36:42.583Z,3.10
2022-11-15T06:39:28.051Z,2.50
2022-11-15T06:42:13.307Z,2.22
2022-11-15T06:45:02.834Z,2.22
2022-11-15T06:47:48.645Z,2.30
2022-11-15T06:50:33.839Z,2.63
2022-11-15T06:53:19.139Z,2.67
2022-11-15T06:56:10.244Z,2.75
2022-11-15T06:58:56.459Z,2.92
2022-11-15T07:02:13.751Z,2.47
2022-11-15T07:05:01.931Z,2.60
2022-11-15T07:07:53.842Z,3.10
2022-11-15T07:10:38.900Z,3.10
2022-11-15T07:13:35.572Z,2.78
2022-11-15T07:16:21.771Z,3.70
2022-11-15T07:19:07.146Z,2.47
2022-11-15T07:21:52.455Z,3.10
2022-11-15T07:24:42.342Z,2.95
2022-11-15T07:27:27.592Z,2.80
2022-11-15T07:30:15.572Z,2.60
2022-11-15T07:33:02.013Z,2.70
2022-11-15T07:35:50.972Z,2.75
2022-11-15T07:38:42.397Z,3.05
2022-11-15T07:41:30.872Z,4.30
2022-11-15T07:44:16.433Z,4.43
2022-11-15T07:47:01.567Z,4.80
2022-11-15T07:49:47.777Z,4.63
2022-11-15T07:52:32.997Z,4.10
2022-11-15T07:55:18.305Z,4.28
2022-11-15T07:58:09.937Z,4.07
2022-11-15T08:00:55.083Z,3.55
2022-11-15T08:03:40.270Z,4.03
2022-11-15T08:06:25.662Z,3.60
2022-11-15T08:09:10.730Z,3.30
2022-11-15T08:11:56.894Z,3.03
2022-11-15T08:14:42.066Z,3.20
2022-11-15T08:17:27.269Z,3.70
2022-11-15T08:20:12.516Z,2.83
2022-11-15T08:23:02.713Z,2.53
2022-11-15T08:25:47.740Z,2.90
2022-11-15T08:28:33.536Z,3.25
2022-11-15T08:31:19.268Z,3.08
2022-11-15T08:34:05.681Z,2.85
2022-11-15T08:36:51.034Z,3.00
2022-11-15T08:39:36.304Z,2.78
2022-11-15T08:42:21.696Z,2.90
2022-11-15T08:45:08.517Z,2.90
2022-11-15T08:47:54.588Z,2.50
2022-11-15T08:50:39.972Z,3.10
2022-11-15T08:53:25.375Z,3.15
2022-11-15T08:56:14.969Z,2.97
2022-11-15T08:59:01.547Z,2.65
2022-11-15T09:01:46.947Z,2.47
2022-11-15T09:04:32.155Z,2.80
2022-11-15T09:07:17.836Z,2.92
2022-11-15T09:10:04.143Z,2.92
2022-11-15T09:12:49.583Z,2.38
2022-11-15T09:15:35.313Z,3.00
2022-11-15T09:18:23.452Z,3.20
2022-11-15T09:21:09.589Z,2.90
2022-11-15T09:23:55.001Z,2.85
2022-11-15T09:26:40.761Z,2.70
2022-11-15T09:29:26.042Z,2.35
2022-11-15T09:32:11.138Z,2.72
2022-11-15T09:34:56.877Z,2.08
2022-11-15T09:37:41.793Z,2.72
2022-11-15T09:40:27.348Z,2.35
2022-11-15T09:43:48.491Z,2.38
2022-11-15T09:46:51.793Z,2.20
2022-11-15T09:49:43.314Z,2.60
2022-11-15T09:52:25.713Z,2.50
2022-11-15T09:54:55.490Z,2.15
2022-11-15T09:57:32.771Z,2.50
